createdAt,value
2022-12-13T00:01:55.845Z,7.75
2022-12-13T00:04:25.110Z,8.55
2022-12-13T00:06:59.244Z,8.25
2022-12-13T00:09:29.048Z,9.00
2022-12-13T00:11:56.447Z,8.40
2022-12-13T00:14:28.002Z,8.07
2022-12-13T00:16:55.313Z,8.77
2022-12-13T00:19:25.958Z,8.77
2022-12-13T00:24:22.593Z,8.48
2022-12-13T00:26:49.711Z,9.00
2022-12-13T00:29:16.850Z,8.60
2022-12-13T00:32:01.083Z,7.70
2022-12-13T00:34:29.270Z,9.52
2022-12-13T00:36:59.338Z,8.50
2022-12-13T00:39:29.586Z,8.80
2022-12-13T00:41:59.503Z,8.55
2022-12-13T00:44:29.369Z,9.70
2022-12-13T00:46:56.846Z,8.98
2022-12-13T00:49:26.791Z,8.98
2022-12-13T00:51:53.963Z,8.43
2022-12-13T00:54:23.921Z,8.93
2022-12-13T00:56:52.697Z,8.52
2022-12-13T00:59:22.994Z,8.88
2022-12-13T01:01:53.647Z,9.20
2022-12-13T01:04:21.089Z,8.65
2022-12-13T01:06:50.095Z,8.98
2022-12-13T01:09:29.837Z,8.57
2022-12-13T01:12:08.674Z,9.20
2022-12-13T01:14:38.952Z,9.23
2022-12-13T01:17:07.392Z,9.20
2022-12-13T01:19:34.714Z,8.90
2022-12-13T01:22:05.018Z,9.40
2022-12-13T01:24:33.547Z,9.13
2022-12-13T01:27:03.480Z,9.45
2022-12-13T01:29:35.666Z,9.05
2022-12-13T01:32:08.386Z,9.57
2022-12-13T01:34:38.492Z,8.73
2022-12-13T01:37:09.150Z,8.90
2022-12-13T01:39:38.808Z,9.07
2022-12-13T01:42:09.070Z,9.33
2022-12-13T01:45:14.011Z,9.00
2022-12-13T01:47:48.822Z,8.95
2022-12-13T01:50:26.860Z,8.85
2022-12-13T01:52:56.900Z,9.32
2022-12-13T01:55:33.633Z,10.40
2022-12-13T01:58:13.407Z,9.52
2022-12-13T02:00:44.538Z,9.95
2022-12-13T02:03:21.088Z,9.80
2022-12-13T02:06:11.022Z,10.02
2022-12-13T02:08:42.973Z,9.45
2022-12-13T02:11:11.306Z,9.27
2022-12-13T02:13:45.811Z,10.20
2022-12-13T02:16:39.592Z,9.77
2022-12-13T02:19:34.727Z,8.68
2022-12-13T02:22:04.439Z,8.75
2022-12-13T02:25:10.750Z,10.10
2022-12-13T02:28:04.390Z,9.82
2022-12-13T02:31:12.889Z,9.43
2022-12-13T02:34:33.899Z,9.68
2022-12-13T02:37:01.283Z,9.93
2022-12-13T02:39:35.149Z,9.93
2022-12-13T02:42:21.370Z,10.40
2022-12-13T02:45:02.788Z,10.32
2022-12-13T02:47:32.279Z,10.88
2022-12-13T02:50:23.057Z,10.15
2022-12-13T02:52:53.170Z,9.88
2022-12-13T02:55:23.925Z,10.73
2022-12-13T02:57:53.858Z,10.07
2022-12-13T03:00:33.455Z,9.85
2022-12-13T03:03:08.751Z,9.47
2022-12-13T03:06:33.645Z,9.75
2022-12-13T03:09:27.123Z,9.65
2022-12-13T03:12:24.367Z,9.02
2022-12-13T03:15:17.565Z,9.75
2022-12-13T03:18:15.686Z,10.07
2022-12-13T03:20:50.392Z,10.10
2022-12-13T03:23:21.472Z,10.57
2022-12-13T03:25:53.927Z,10.82
2022-12-13T03:28:25.938Z,10.02
2022-12-13T03:30:55.658Z,9.93
2022-12-13T03:33:22.976Z,10.77
2022-12-13T03:35:50.344Z,10.20
2022-12-13T03:38:21.591Z,9.70
2022-12-13T03:40:55.924Z,10.35
2022-12-13T03:43:23.822Z,10.10
2022-12-13T03:45:55.172Z,9.88
2022-12-13T03:48:23.806Z,10.13
2022-12-13T03:50:55.567Z,10.60
2022-12-13T03:53:33.100Z,10.07
2022-12-13T03:56:08.409Z,10.95
2022-12-13T03:58:37.935Z,10.63
2022-12-13T04:01:10.679Z,10.05
2022-12-13T04:03:39.411Z,10.48
2022-12-13T04:06:07.426Z,9.95
2022-12-13T04:08:35.358Z,9.82
2022-12-13T04:11:22.870Z,10.10
2022-12-13T04:13:50.184Z,10.27
2022-12-13T04:16:17.695Z,10.93
2022-12-13T04:18:44.949Z,9.75
2022-12-13T04:21:12.188Z,10.45
2022-12-13T04:23:39.466Z,9.57
2022-12-13T04:26:08.101Z,10.50
2022-12-13T04:28:35.691Z,9.50
2022-12-13T04:31:07.234Z,9.57
2022-12-13T04:33:35.724Z,9.70
2022-12-13T04:36:03.977Z,9.25
2022-12-13T04:38:38.228Z,9.73
2022-12-13T04:41:07.856Z,10.32
2022-12-13T04:43:35.171Z,10.20
2022-12-13T04:46:02.553Z,9.65
2022-12-13T04:48:30.762Z,10.30
2022-12-13T04:51:01.354Z,10.45
2022-12-13T04:53:30.746Z,10.48
2022-12-13T04:55:58.210Z,10.07
2022-12-13T04:58:27.793Z,10.00
2022-12-13T05:00:56.391Z,9.45
2022-12-13T05:03:26.120Z,10.55
2022-12-13T05:05:53.265Z,10.38
2022-12-13T05:08:20.542Z,9.27
2022-12-13T05:10:50.684Z,10.70
2022-12-13T05:13:18.058Z,10.63
2022-12-13T05:15:55.740Z,9.70
2022-12-13T05:18:23.053Z,10.30
2022-12-13T05:20:51.340Z,10.07
2022-12-13T05:23:22.415Z,9.95
2022-12-13T05:25:56.218Z,10.10
2022-12-13T05:28:28.358Z,9.50
2022-12-13T05:31:23.278Z,9.35
2022-12-13T05:33:52.184Z,9.82
2022-12-13T05:36:19.432Z,10.02
2022-12-13T05:38:47.325Z,9.98
2022-12-13T05:41:17.629Z,9.77
2022-12-13T05:43:48.012Z,10.23
2022-12-13T05:46:15.296Z,9.80
2022-12-13T05:48:43.088Z,10.15
2022-12-13T05:51:13.499Z,10.38
2022-12-13T05:53:42.447Z,33.55
2022-12-13T05:56:11.724Z,46.38
2022-12-13T05:58:49.004Z,50.50
2022-12-13T06:01:30.448Z,36.20
2022-12-13T06:04:01.414Z,40.95
2022-12-13T06:06:31.568Z,41.08
2022-12-13T06:08:59.967Z,14.50
2022-12-13T06:11:31.618Z,11.23
2022-12-13T06:14:00.582Z,9.60
2022-12-13T06:16:28.828Z,9.95
2022-12-13T06:19:03.840Z,9.60
2022-12-13T06:21:33.881Z,9.45
2022-12-13T06:24:17.989Z,9.73
2022-12-13T06:26:52.431Z,10.13
2022-12-13T06:29:25.821Z,10.40
2022-12-13T06:32:03.616Z,10.50
2022-12-13T06:34:36.683Z,10.02
2022-12-13T06:37:12.290Z,9.93
2022-12-13T06:39:42.532Z,10.13
2022-12-13T06:42:22.184Z,10.95
2022-12-13T06:44:56.021Z,10.15
2022-12-13T06:50:04.986Z,10.02
2022-12-13T06:52:33.010Z,10.10
2022-12-13T06:55:02.435Z,9.82
2022-12-13T06:57:35.075Z,11.18
2022-12-13T07:00:05.208Z,9.98
2022-12-13T07:02:32.866Z,10.02
2022-12-13T07:05:00.360Z,10.45
2022-12-13T07:07:27.481Z,10.18
2022-12-13T07:09:54.806Z,10.18
2022-12-13T07:12:22.450Z,10.43
2022-12-13T07:14:49.804Z,11.40
2022-12-13T07:17:34.034Z,10.00
2022-12-13T07:20:06.606Z,10.93
2022-12-13T07:22:53.718Z,10.02
2022-12-13T07:25:29.658Z,25.67
2022-12-13T07:28:09.195Z,12.35
2022-12-13T07:30:40.987Z,11.80
2022-12-13T07:33:10.967Z,10.95
2022-12-13T07:35:39.433Z,10.93
2022-12-13T07:38:08.144Z,10.60
2022-12-13T07:40:36.503Z,10.65
2022-12-13T07:43:12.167Z,11.00
2022-12-13T07:45:46.571Z,11.68
2022-12-13T07:48:14.193Z,10.27
2022-12-13T07:50:46.268Z,10.45
2022-12-13T07:53:26.665Z,10.98
2022-12-13T07:55:53.805Z,10.63
2022-12-13T07:58:20.951Z,11.18
2022-12-13T08:00:51.103Z,10.95
2022-12-13T08:03:25.357Z,9.98
2022-12-13T08:06:03.258Z,11.10
2022-12-13T08:08:31.869Z,11.10
2022-12-13T08:11:07.480Z,10.48
2022-12-13T08:13:40.967Z,10.38
2022-12-13T08:16:26.593Z,11.55
2022-12-13T08:21:55.778Z,11.05
2022-12-13T08:24:25.219Z,12.30
2022-12-13T08:26:54.032Z,10.73
2022-12-13T08:29:23.384Z,11.23
2022-12-13T08:32:06.720Z,11.10
2022-12-13T08:34:34.018Z,11.25
2022-12-13T08:37:06.993Z,11.38
2022-12-13T08:39:36.883Z,11.93
2022-12-13T08:42:20.460Z,11.68
2022-12-13T08:44:54.188Z,11.98
2022-12-13T08:50:02.611Z,12.13
2022-12-13T08:52:40.715Z,12.80
2022-12-13T08:55:13.776Z,12.30
2022-12-13T08:57:42.302Z,12.57
2022-12-13T09:00:14.224Z,11.55
2022-12-13T09:02:41.560Z,12.68
2022-12-13T09:05:32.427Z,11.70
2022-12-13T09:08:23.406Z,12.98
2022-12-13T09:11:10.455Z,13.02
2022-12-13T09:13:43.641Z,12.85
2022-12-13T09:16:26.055Z,13.25
2022-12-13T09:18:55.354Z,13.15
2022-12-13T09:21:31.688Z,13.55
2022-12-13T09:24:02.479Z,14.65
2022-12-13T09:32:02.957Z,14.20
2022-12-13T09:34:33.802Z,14.32
2022-12-13T09:37:07.606Z,12.70
2022-12-13T09:39:35.153Z,13.30
2022-12-13T09:42:10.275Z,12.40
2022-12-13T09:44:51.229Z,13.27
2022-12-13T09:47:47.586Z,12.63
2022-12-13T09:50:28.146Z,11.85
2022-12-13T09:52:59.846Z,13.07
2022-12-13T09:55:45.864Z,13.38
2022-12-13T10:01:11.646Z,12.93
2022-12-13T10:03:44.193Z,14.75
2022-12-13T10:06:22.600Z,14.00
2022-12-13T10:08:58.730Z,12.25
2022-12-13T10:11:32.675Z,13.45
2022-12-13T10:14:03.102Z,13.32
2022-12-13T10:16:37.297Z,14.77
2022-12-13T10:19:29.470Z,14.90
2022-12-13T10:22:01.436Z,13.68
2022-12-13T10:24:47.721Z,13.73
2022-12-13T10:27:21.717Z,14.80
2022-12-13T10:30:03.234Z,14.68
2022-12-13T10:32:37.469Z,13.65
2022-12-13T10:35:41.302Z,13.90
2022-12-13T10:38:08.565Z,14.13
2022-12-13T10:40:38.031Z,15.27
2022-12-13T10:43:21.888Z,14.35
2022-12-13T10:45:59.187Z,14.32
2022-12-13T10:48:40.004Z,13.85
2022-12-13T10:51:10.833Z,16.20
2022-12-13T10:53:59.301Z,14.45
2022-12-13T10:56:43.380Z,15.63
2022-12-13T10:59:32.595Z,15.60
2022-12-13T11:02:23.466Z,15.45
2022-12-13T11:04:54.572Z,15.15
2022-12-13T11:07:25.423Z,15.35
2022-12-13T11:09:53.176Z,15.40
2022-12-13T11:12:27.481Z,15.40
2022-12-13T11:14:56.429Z,14.93
2022-12-13T11:17:26.755Z,14.13
2022-12-13T11:20:00.814Z,15.38
2022-12-13T11:22:32.947Z,14.15
2022-12-13T11:25:05.902Z,13.20
2022-12-13T11:27:52.878Z,13.70
2022-12-13T11:30:23.237Z,13.98
2022-12-13T11:33:22.155Z,13.45
2022-12-13T11:36:22.900Z,13.27
2022-12-13T11:41:42.419Z,11.90
2022-12-13T11:44:26.706Z,13.32
2022-12-13T11:46:59.999Z,12.80
2022-12-13T11:49:46.120Z,12.23
2022-12-13T11:52:25.674Z,13.40
2022-12-13T11:54:59.823Z,12.95
2022-12-13T11:57:45.676Z,11.88
2022-12-13T12:00:40.208Z,10.57
2022-12-13T12:03:13.336Z,11.40
2022-12-13T12:05:56.092Z,13.05
2022-12-13T12:08:34.056Z,14.57
2022-12-13T12:11:27.896Z,13.10
2022-12-13T12:14:18.256Z,10.77
2022-12-13T12:16:53.978Z,12.77
2022-12-13T12:19:24.149Z,13.63
2022-12-13T12:22:14.552Z,13.07
2022-12-13T12:25:04.607Z,12.32
2022-12-13T12:27:58.148Z,11.20
2022-12-13T12:30:44.370Z,11.13
2022-12-13T12:33:31.311Z,10.93
2022-12-13T12:36:29.156Z,13.07
2022-12-13T12:39:03.001Z,11.65
2022-12-13T12:42:03.049Z,11.60
2022-12-13T12:44:46.137Z,11.43
2022-12-13T12:50:16.720Z,10.85
2022-12-13T12:53:08.935Z,10.80
2022-12-13T12:56:17.259Z,11.07
2022-12-13T12:59:10.262Z,11.50
2022-12-13T13:01:43.368Z,11.50
2022-12-13T13:04:14.212Z,10.68
2022-12-13T13:07:22.445Z,10.68
2022-12-13T13:09:55.503Z,11.30
2022-12-13T13:12:35.807Z,10.90
2022-12-13T13:15:33.746Z,11.02
2022-12-13T13:18:39.096Z,10.23
2022-12-13T13:21:25.834Z,10.77
2022-12-13T13:24:02.092Z,10.77
2022-12-13T13:26:35.987Z,10.82
2022-12-13T13:29:27.121Z,11.57
2022-12-13T13:32:02.580Z,11.90
2022-12-13T13:34:35.386Z,11.40
2022-12-13T13:37:07.436Z,11.30
2022-12-13T13:39:56.911Z,10.43
2022-12-13T13:42:29.470Z,10.63
2022-12-13T13:45:23.784Z,11.20
2022-12-13T13:48:14.688Z,11.20
2022-12-13T13:51:15.279Z,10.88
2022-12-13T13:54:07.366Z,11.15
2022-12-13T13:57:38.590Z,11.93
2022-12-13T14:00:22.741Z,10.85
2022-12-13T14:02:49.838Z,10.18
2022-12-13T14:05:56.095Z,9.70
2022-12-13T14:08:48.147Z,10.05
2022-12-13T14:11:52.970Z,8.95
2022-12-13T14:15:05.928Z,9.18
2022-12-13T14:17:47.416Z,8.57
2022-12-13T14:20:39.605Z,8.82
2022-12-13T14:23:33.840Z,8.90
2022-12-13T14:26:10.827Z,8.80
2022-12-13T14:28:55.074Z,8.93
2022-12-13T14:31:26.434Z,9.20
2022-12-13T14:33:55.987Z,9.57
2022-12-13T14:36:35.709Z,8.57
2022-12-13T14:39:05.600Z,9.70
2022-12-13T14:41:45.004Z,9.55
2022-12-13T14:44:44.688Z,9.00
2022-12-13T14:47:12.591Z,9.75
2022-12-13T14:49:48.991Z,12.15
2022-12-13T14:52:26.577Z,11.90
2022-12-13T14:57:32.480Z,12.50
2022-12-13T15:00:20.494Z,12.05
2022-12-13T15:02:53.436Z,12.60
2022-12-13T15:05:30.842Z,13.55
2022-12-13T15:07:58.590Z,13.57
2022-12-13T15:10:39.052Z,16.15
2022-12-13T15:13:06.396Z,13.10
2022-12-13T15:15:40.530Z,14.00
2022-12-13T15:18:21.922Z,14.25
2022-12-13T15:20:50.713Z,13.80
2022-12-13T15:23:29.970Z,14.05
2022-12-13T15:26:01.352Z,14.65
2022-12-13T15:28:34.894Z,14.48
2022-12-13T15:31:04.169Z,14.77
2022-12-13T15:33:36.720Z,13.90
2022-12-13T15:36:10.200Z,13.25
2022-12-13T15:38:41.453Z,14.20
2022-12-13T15:41:18.109Z,14.82
2022-12-13T15:43:57.983Z,13.90
2022-12-13T15:46:33.586Z,15.27
2022-12-13T15:49:02.664Z,14.27
2022-12-13T15:51:30.868Z,16.35
2022-12-13T15:54:09.324Z,16.27
2022-12-13T15:56:58.595Z,16.95
2022-12-13T15:59:35.774Z,17.15
2022-12-13T16:02:04.536Z,18.10
2022-12-13T16:04:33.078Z,17.42
2022-12-13T16:07:01.357Z,21.08
2022-12-13T16:09:39.218Z,20.38
2022-12-13T16:12:09.548Z,29.25
2022-12-13T16:14:49.630Z,20.00
2022-12-13T16:17:27.161Z,18.67
2022-12-13T16:19:56.301Z,18.58
2022-12-13T16:22:26.305Z,18.38
2022-12-13T16:24:56.576Z,16.92
2022-12-13T16:29:52.278Z,17.15
2022-12-13T16:32:19.582Z,16.38
2022-12-13T16:34:46.856Z,18.10
2022-12-13T16:37:25.467Z,17.52
2022-12-13T16:39:54.430Z,16.92
2022-12-13T16:42:47.426Z,17.30
2022-12-13T16:45:41.138Z,18.55
2022-12-13T16:48:08.146Z,20.08
2022-12-13T16:50:41.849Z,17.90
2022-12-13T16:53:11.682Z,19.02
2022-12-13T16:55:43.157Z,19.17
2022-12-13T16:58:16.621Z,20.25
2022-12-13T17:00:46.812Z,20.85
2022-12-13T17:03:14.883Z,21.60
2022-12-13T17:05:43.978Z,38.40
2022-12-13T17:08:16.538Z,40.10
2022-12-13T17:10:45.352Z,85.03
2022-12-13T17:13:13.288Z,97.05
2022-12-13T17:15:40.509Z,36.53
2022-12-13T17:18:08.117Z,34.20
2022-12-13T17:20:38.960Z,24.65
2022-12-13T17:23:06.735Z,22.33
2022-12-13T17:25:41.590Z,21.63
2022-12-13T17:28:08.881Z,23.70
2022-12-13T17:30:39.308Z,24.42
2022-12-13T17:33:12.198Z,25.38
2022-12-13T17:35:40.894Z,21.48
2022-12-13T17:38:08.243Z,19.13
2022-12-13T17:40:36.048Z,17.10
2022-12-13T17:43:03.392Z,16.38
2022-12-13T17:45:30.630Z,16.13
2022-12-13T17:47:57.691Z,16.95
2022-12-13T17:50:25.246Z,15.98
2022-12-13T17:52:52.596Z,15.65
2022-12-13T17:55:19.789Z,13.55
2022-12-13T17:57:47.054Z,14.27
2022-12-13T18:00:15.207Z,14.80
2022-12-13T18:02:42.479Z,16.17
2022-12-13T18:05:25.294Z,12.82
2022-12-13T18:07:52.538Z,14.40
2022-12-13T18:10:22.482Z,16.42
2022-12-13T18:12:52.011Z,15.38
2022-12-13T18:15:19.260Z,18.58
2022-12-13T18:18:10.788Z,23.65
2022-12-13T18:20:38.121Z,19.90
2022-12-13T18:23:05.232Z,18.65
2022-12-13T18:25:32.796Z,18.52
2022-12-13T18:28:01.317Z,18.38
2022-12-13T18:30:31.261Z,18.35
2022-12-13T18:33:02.024Z,18.33
2022-12-13T18:35:29.577Z,17.85
2022-12-13T18:37:59.121Z,17.92
2022-12-13T18:40:26.352Z,18.00
2022-12-13T18:42:58.079Z,19.02
2022-12-13T18:45:25.591Z,20.65
2022-12-13T18:47:52.910Z,18.42
2022-12-13T18:50:21.136Z,17.48
2022-12-13T18:52:51.390Z,18.67
2022-12-13T18:55:20.669Z,18.48
2022-12-13T18:57:51.136Z,18.63
2022-12-13T19:00:19.219Z,18.48
2022-12-13T19:02:46.764Z,18.20
2022-12-13T19:05:15.184Z,18.45
2022-12-13T19:07:43.300Z,17.40
2022-12-13T19:10:10.950Z,16.63
2022-12-13T19:12:38.042Z,16.95
2022-12-13T19:15:06.819Z,17.20
2022-12-13T19:17:42.953Z,18.35
2022-12-13T19:20:11.993Z,17.52
2022-12-13T19:22:40.302Z,16.60
2022-12-13T19:25:07.831Z,18.30
2022-12-13T19:27:35.239Z,16.58
2022-12-13T19:30:02.382Z,17.90
2022-12-13T19:32:29.594Z,18.30
2022-12-13T19:34:57.078Z,17.90
2022-12-13T19:37:25.776Z,19.33
2022-12-13T19:39:54.484Z,20.08
2022-12-13T19:42:21.768Z,19.65
2022-12-13T19:44:49.566Z,20.20
2022-12-13T19:47:17.126Z,20.52
2022-12-13T19:49:44.401Z,40.13
2022-12-13T19:52:12.851Z,70.55
2022-12-13T19:54:39.960Z,47.05
2022-12-13T19:57:07.562Z,73.03
2022-12-13T19:59:34.914Z,44.40
2022-12-13T20:02:02.312Z,38.42
2022-12-13T20:04:29.584Z,32.97
2022-12-13T20:06:59.341Z,26.55
2022-12-13T20:09:26.506Z,20.98
2022-12-13T20:11:54.978Z,19.80
2022-12-13T20:14:22.212Z,20.33
2022-12-13T20:16:50.355Z,20.35
2022-12-13T20:19:19.050Z,20.13
2022-12-13T20:21:46.676Z,21.10
2022-12-13T20:24:13.821Z,20.92
2022-12-13T20:26:41.043Z,20.38
2022-12-13T20:29:08.525Z,22.58
2022-12-13T20:31:39.088Z,22.75
2022-12-13T20:37:15.245Z,22.52
2022-12-13T20:43:02.215Z,22.45
2022-12-13T20:45:50.404Z,23.20
2022-12-13T20:48:29.326Z,22.85
2022-12-13T20:51:09.332Z,23.98
2022-12-13T20:53:53.470Z,23.27
2022-12-13T20:56:32.161Z,23.95
2022-12-13T21:06:11.069Z,27.00
2022-12-13T21:08:59.953Z,24.60
2022-12-13T21:11:58.052Z,25.23
2022-12-13T21:14:29.462Z,23.27
2022-12-13T21:21:07.912Z,52.22
2022-12-13T21:24:17.273Z,39.42
2022-12-13T21:30:48.944Z,29.33
2022-12-13T21:33:38.334Z,28.45
2022-12-13T21:36:23.348Z,26.75
2022-12-13T21:39:01.734Z,24.17
2022-12-13T21:41:29.984Z,23.38
2022-12-13T21:44:02.662Z,21.95
2022-12-13T21:46:55.224Z,21.40
2022-12-13T21:49:18.878Z,20.83
2022-12-13T21:59:26.485Z,19.98
2022-12-13T22:03:00.721Z,20.70
2022-12-13T22:06:08.307Z,19.70
2022-12-13T22:08:50.811Z,20.65
2022-12-13T22:11:21.553Z,21.45
2022-12-13T22:14:00.035Z,21.83
2022-12-13T22:17:12.403Z,23.80
2022-12-13T22:20:00.981Z,23.35
2022-12-13T22:22:58.182Z,25.00
2022-12-13T22:30:04.580Z,36.33
2022-12-13T22:32:34.157Z,28.73
2022-12-13T22:42:12.066Z,28.17
2022-12-13T22:48:13.527Z,24.38
2022-12-13T22:55:09.951Z,24.88
2022-12-13T23:02:11.849Z,25.35
2022-12-13T23:04:39.231Z,25.25
2022-12-13T23:07:06.417Z,24.65
2022-12-13T23:09:33.611Z,24.63
2022-12-13T23:12:19.231Z,22.25
2022-12-13T23:14:46.433Z,22.45
2022-12-13T23:17:13.734Z,22.83
2022-12-13T23:19:50.290Z,22.33
2022-12-13T23:22:24.019Z,21.15
2022-12-13T23:24:52.545Z,21.55
2022-12-13T23:27:23.311Z,21.10
2022-12-13T23:29:50.503Z,20.63
2022-12-13T23:32:18.052Z,21.67
2022-12-13T23:34:45.171Z,22.25
2022-12-13T23:37:12.298Z,21.88
2022-12-13T23:39:39.484Z,20.85
2022-12-13T23:42:06.583Z,20.92
2022-12-13T23:44:33.823Z,20.67
2022-12-13T23:47:00.942Z,21.63
2022-12-13T23:49:28.170Z,20.92
2022-12-13T23:51:55.371Z,20.83
2022-12-13T23:54:22.825Z,21.70
2022-12-13T23:56:50.075Z,21.00
2022-12-13T23:59:17.189Z,20.33
